createdAt,value
2022-08-12T00:02:04.132Z,45.87
2022-08-12T00:07:26.807Z,58.93
2022-08-12T00:12:47.325Z,52.23
2022-08-12T00:18:07.977Z,49.60
2022-08-12T00:23:28.599Z,36.13
2022-08-12T00:28:49.882Z,55.80
2022-08-12T00:34:10.494Z,49.43
2022-08-12T00:39:31.790Z,59.23
2022-08-12T00:44:34.218Z,82.83
2022-08-12T00:49:37.536Z,90.53
2022-08-12T00:54:42.717Z,107.43
2022-08-12T00:59:53.710Z,104.97
2022-08-12T01:05:18.979Z,95.83
2022-08-12T01:10:40.370Z,66.77
2022-08-12T01:15:45.860Z,56.17
2022-08-12T01:21:12.127Z,52.73
2022-08-12T01:26:25.210Z,50.03
2022-08-12T01:31:29.475Z,40.30
2022-08-12T01:36:47.908Z,34.60
2022-08-12T01:41:55.134Z,37.13
2022-08-12T01:47:09.793Z,50.97
2022-08-12T01:52:26.621Z,40.87
2022-08-12T01:57:58.403Z,46.30
2022-08-12T02:03:53.130Z,48.40
2022-08-12T02:09:17.931Z,39.37
2022-08-12T02:14:52.020Z,36.30
2022-08-12T02:20:03.604Z,34.37
2022-08-12T02:25:28.044Z,35.90
2022-08-12T02:30:41.255Z,32.57
2022-08-12T02:35:45.112Z,37.13
2022-08-12T02:40:48.039Z,37.70
2022-08-12T02:46:01.655Z,30.40
2022-08-12T02:51:09.723Z,21.77
2022-08-12T02:56:15.286Z,24.50
2022-08-12T03:01:23.881Z,24.45
2022-08-12T03:06:32.889Z,26.93
2022-08-12T03:11:51.025Z,28.33
2022-08-12T03:17:16.342Z,23.50
2022-08-12T03:22:41.030Z,37.40
2022-08-12T03:27:51.866Z,23.47
2022-08-12T03:32:57.017Z,13.53
2022-08-12T03:38:01.414Z,12.30
2022-08-12T03:43:29.741Z,10.93
2022-08-12T03:48:53.480Z,8.87
2022-08-12T03:54:14.318Z,12.90
2022-08-12T03:59:35.056Z,10.63
2022-08-12T04:04:37.269Z,8.37
2022-08-12T04:09:44.560Z,7.67
2022-08-12T04:14:47.209Z,11.33
2022-08-12T04:19:50.114Z,20.60
2022-08-12T04:24:54.082Z,10.53
2022-08-12T04:30:21.112Z,15.40
2022-08-12T04:35:20.727Z,28.30
2022-08-12T04:40:28.041Z,26.47
2022-08-12T04:45:35.962Z,30.87
2022-08-12T04:50:41.035Z,22.57
2022-08-12T04:55:45.863Z,23.67
2022-08-12T05:00:48.061Z,38.27
2022-08-12T05:05:50.362Z,23.03
2022-08-12T05:10:53.274Z,18.53
2022-08-12T05:16:03.899Z,9.13
2022-08-12T05:21:10.573Z,11.73
2022-08-12T05:26:12.740Z,8.00
2022-08-12T05:31:15.022Z,8.57
2022-08-12T05:36:37.282Z,5.63
2022-08-12T05:41:40.189Z,10.43
2022-08-12T05:46:43.243Z,5.40
2022-08-12T05:51:45.437Z,8.03
2022-08-12T05:56:48.618Z,5.57
2022-08-12T06:02:09.458Z,6.20
2022-08-12T06:07:59.847Z,5.90
2022-08-12T06:12:36.798Z,7.60
2022-08-12T06:17:38.997Z,4.53
2022-08-12T06:22:43.959Z,4.87
2022-08-12T06:28:07.255Z,4.37
2022-08-12T06:33:21.182Z,2.60
2022-08-12T06:38:29.456Z,4.37
2022-08-12T06:44:06.721Z,2.20
2022-08-12T06:48:59.516Z,1.80
2022-08-12T06:54:02.546Z,27.83
2022-08-12T06:59:06.087Z,9.17
2022-08-12T07:04:33.849Z,2.93
2022-08-12T07:10:04.858Z,2.87
2022-08-12T07:14:52.963Z,2.30
2022-08-12T07:19:59.182Z,3.78
2022-08-12T07:25:20.054Z,4.20
2022-08-12T07:30:23.411Z,2.17
2022-08-12T07:35:27.759Z,4.65
2022-08-12T07:40:31.675Z,2.30
2022-08-12T07:45:33.968Z,3.63
2022-08-12T07:50:36.150Z,2.53
2022-08-12T07:55:38.343Z,2.10
2022-08-12T08:00:40.646Z,2.55
2022-08-12T08:05:49.808Z,3.45
2022-08-12T08:11:24.186Z,2.60
2022-08-12T08:21:57.700Z,1.88
2022-08-12T08:27:01.286Z,2.58
2022-08-12T08:32:04.684Z,2.38
2022-08-12T08:37:10.828Z,3.67
2022-08-12T08:42:36.177Z,2.50
2022-08-12T08:47:44.274Z,2.60
2022-08-12T08:52:48.982Z,1.90
2022-08-12T08:57:54.399Z,3.08
2022-08-12T09:02:59.494Z,2.70
2022-08-12T09:08:13.102Z,2.75
2022-08-12T09:14:12.233Z,3.17
2022-08-12T09:24:20.102Z,2.53
2022-08-12T09:30:11.489Z,2.10
2022-08-12T09:34:46.880Z,2.30
2022-08-12T09:40:03.304Z,2.78
2022-08-12T09:46:06.087Z,2.42
2022-08-12T09:50:51.758Z,2.15
2022-08-12T09:56:06.955Z,2.17
2022-08-12T10:01:23.315Z,2.90
2022-08-12T10:06:32.203Z,2.58
2022-08-12T10:12:11.322Z,2.88
2022-08-12T10:17:15.720Z,2.20
2022-08-12T10:22:39.197Z,3.58
2022-08-12T10:28:09.878Z,2.35
2022-08-12T10:33:31.034Z,2.00
2022-08-12T10:38:41.543Z,2.22
2022-08-12T10:43:55.820Z,1.98
2022-08-12T10:49:06.229Z,9.05
2022-08-12T10:54:28.199Z,2.47
2022-08-12T11:00:29.368Z,4.35
2022-08-12T11:07:03.320Z,2.58
2022-08-12T11:10:26.516Z,2.33
2022-08-12T11:16:03.341Z,2.00
2022-08-12T11:20:52.153Z,2.65
2022-08-12T11:25:58.123Z,2.38
2022-08-12T11:31:01.318Z,2.75
2022-08-12T11:36:14.651Z,2.67
2022-08-12T11:41:18.133Z,3.95
2022-08-12T11:46:38.693Z,2.15
2022-08-12T11:51:41.045Z,2.45
2022-08-12T11:56:52.431Z,2.58
2022-08-12T12:02:05.596Z,2.38
2022-08-12T12:07:11.521Z,3.38
2022-08-12T12:12:15.035Z,4.10
2022-08-12T12:17:17.673Z,4.20
2022-08-12T12:22:23.359Z,2.40
2022-08-12T12:28:05.055Z,2.38
2022-08-12T12:33:17.683Z,3.50
2022-08-12T12:38:40.772Z,4.28
2022-08-12T12:43:56.556Z,2.60
2022-08-12T12:49:11.035Z,2.67
2022-08-12T12:54:13.469Z,2.25
2022-08-12T12:59:56.435Z,2.25
2022-08-12T13:04:41.266Z,2.30
2022-08-12T13:09:46.980Z,2.20
2022-08-12T13:14:52.184Z,2.83
2022-08-12T13:19:55.650Z,3.10
2022-08-12T13:25:00.019Z,3.22
2022-08-12T13:30:06.871Z,2.67
2022-08-12T13:35:19.686Z,2.50
2022-08-12T13:40:35.638Z,2.47
2022-08-12T13:45:41.946Z,3.72
2022-08-12T13:50:44.240Z,3.40
2022-08-12T13:56:01.388Z,3.55
2022-08-12T14:01:08.910Z,3.30
2022-08-12T14:06:15.377Z,5.33
2022-08-12T14:11:32.364Z,3.13
2022-08-12T14:16:49.370Z,10.93
2022-08-12T14:21:59.174Z,3.87
2022-08-12T14:27:02.862Z,3.45
2022-08-12T14:32:07.918Z,14.45
2022-08-12T14:37:58.197Z,9.55
2022-08-12T14:42:42.137Z,6.35
2022-08-12T14:47:58.620Z,6.20
2022-08-12T14:58:24.888Z,3.10
2022-08-12T15:03:46.634Z,4.07
2022-08-12T15:08:50.563Z,4.22
2022-08-12T15:13:56.163Z,5.85
2022-08-12T15:18:59.262Z,6.28
2022-08-12T15:24:08.889Z,6.13
2022-08-12T15:29:16.946Z,7.45
2022-08-12T15:34:19.249Z,7.78
2022-08-12T15:39:21.785Z,3.53
2022-08-12T15:44:42.147Z,3.17
2022-08-12T15:50:00.090Z,40.50
2022-08-12T15:55:05.982Z,17.27
2022-08-12T16:00:31.682Z,20.02
2022-08-12T16:06:11.777Z,23.85
2022-08-12T16:11:14.908Z,16.55
2022-08-12T16:16:24.180Z,26.60
2022-08-12T16:21:50.468Z,28.60
2022-08-12T16:26:51.252Z,22.85
2022-08-12T16:31:56.413Z,19.05
2022-08-12T16:37:02.325Z,12.50
2022-08-12T16:42:05.784Z,16.15
2022-08-12T16:47:08.110Z,15.60
2022-08-12T16:52:12.703Z,18.02
2022-08-12T16:57:15.289Z,14.07
2022-08-12T17:02:31.635Z,16.58
2022-08-12T17:07:43.088Z,12.90
2022-08-12T17:12:45.823Z,21.98
2022-08-12T17:18:39.073Z,14.35
2022-08-12T17:23:20.574Z,8.73
2022-08-12T17:28:25.536Z,9.98
2022-08-12T17:33:33.515Z,11.30
2022-08-12T17:38:38.270Z,10.85
2022-08-12T17:43:54.797Z,17.77
2022-08-12T17:49:06.918Z,14.02
2022-08-12T17:54:24.903Z,12.38
2022-08-12T17:59:48.466Z,14.77
2022-08-12T18:05:04.899Z,20.65
2022-08-12T18:10:08.647Z,33.50
2022-08-12T18:15:47.742Z,23.30
2022-08-12T18:20:44.654Z,24.20
2022-08-12T18:26:12.472Z,17.42
2022-08-12T18:31:24.184Z,21.97
2022-08-12T18:36:51.632Z,20.35
2022-08-12T18:41:54.494Z,17.70
2022-08-12T18:47:01.690Z,13.10
2022-08-12T18:52:11.848Z,14.68
2022-08-12T18:57:20.008Z,11.55
2022-08-12T19:02:40.363Z,19.00
2022-08-12T19:08:00.532Z,15.82
2022-08-12T19:13:25.121Z,17.23
2022-08-12T19:18:35.652Z,23.30
2022-08-12T19:23:42.283Z,25.00
2022-08-12T19:28:48.147Z,35.83
2022-08-12T19:34:14.601Z,48.63
2022-08-12T19:39:15.290Z,41.13
2022-08-12T19:44:27.259Z,23.93
2022-08-12T19:49:29.916Z,17.50
2022-08-12T19:54:56.249Z,15.50
2022-08-12T20:00:03.644Z,31.70
2022-08-12T20:06:08.022Z,24.58
2022-08-12T20:10:37.160Z,25.80
2022-08-12T20:15:44.558Z,18.73
2022-08-12T20:20:47.818Z,26.47
2022-08-12T20:25:58.620Z,35.13
2022-08-12T20:31:08.686Z,27.47
2022-08-12T20:36:41.053Z,20.97
2022-08-12T20:41:36.244Z,29.30
2022-08-12T20:46:38.826Z,23.73
2022-08-12T20:51:54.876Z,13.60
2022-08-12T20:56:58.243Z,19.77
2022-08-12T21:02:04.948Z,20.43
2022-08-12T21:07:10.343Z,16.77
2022-08-12T21:12:28.650Z,17.73
2022-08-12T21:18:08.269Z,23.47
2022-08-12T21:22:57.741Z,25.60
2022-08-12T21:28:01.271Z,30.83
2022-08-12T21:33:10.701Z,27.67
2022-08-12T21:38:16.949Z,26.90
2022-08-12T21:43:21.191Z,23.20
2022-08-12T21:48:25.571Z,26.80
2022-08-12T21:54:06.133Z,18.33
2022-08-12T21:58:50.135Z,24.67
2022-08-12T22:04:12.568Z,21.20
2022-08-12T22:09:15.756Z,20.30
2022-08-12T22:14:23.522Z,16.53
2022-08-12T22:19:26.675Z,22.33
2022-08-12T22:24:30.363Z,21.40
2022-08-12T22:29:52.614Z,13.13
2022-08-12T22:35:22.408Z,18.13
2022-08-12T22:40:26.582Z,16.90
2022-08-12T22:45:48.479Z,15.27
2022-08-12T22:50:59.770Z,18.50
2022-08-12T22:56:06.482Z,14.47
2022-08-12T23:01:13.771Z,14.80
2022-08-12T23:06:25.292Z,13.77
2022-08-12T23:11:33.635Z,10.97
2022-08-12T23:16:41.013Z,14.03
2022-08-12T23:22:05.065Z,11.67
2022-08-12T23:27:51.045Z,9.77
2022-08-12T23:32:59.853Z,14.73
2022-08-12T23:38:03.339Z,15.30
2022-08-12T23:43:05.953Z,16.97
2022-08-12T23:48:08.450Z,13.83
2022-08-12T23:53:32.370Z,14.27
2022-08-12T23:58:35.774Z,11.40
